sensor_id;sensor_type;location;lat;lon;timestamp;P1;durP1;ratioP1;P2;durP2;ratioP2
9763;SDS011;4921;43.214;27.936;2023-08-06T00:01:33;16.40;;;10.17;;
9763;SDS011;4921;43.214;27.936;2023-08-06T00:04:00;14.53;;;10.23;;
9763;SDS011;4921;43.214;27.936;2023-08-06T00:06:27;15.13;;;10.30;;
9763;SDS011;4921;43.214;27.936;2023-08-06T00:08:54;13.47;;;9.40;;
9763;SDS011;4921;43.214;27.936;2023-08-06T00:11:22;12.80;;;9.40;;
9763;SDS011;4921;43.214;27.936;2023-08-06T00:13:49;10.97;;;9.43;;
9763;SDS011;4921;43.214;27.936;2023-08-06T00:16:17;11.80;;;9.20;;
9763;SDS011;4921;43.214;27.936;2023-08-06T00:18:44;13.07;;;9.50;;
9763;SDS011;4921;43.214;27.936;2023-08-06T00:21:11;13.90;;;8.27;;
9763;SDS011;4921;43.214;27.936;2023-08-06T00:23:38;16.83;;;9.90;;
9763;SDS011;4921;43.214;27.936;2023-08-06T00:26:05;17.67;;;9.43;;
9763;SDS011;4921;43.214;27.936;2023-08-06T00:28:32;11.87;;;9.67;;
9763;SDS011;4921;43.214;27.936;2023-08-06T00:30:59;16.97;;;10.00;;
9763;SDS011;4921;43.214;27.936;2023-08-06T00:33:28;14.43;;;9.67;;
9763;SDS011;4921;43.214;27.936;2023-08-06T00:35:55;14.57;;;9.60;;
9763;SDS011;4921;43.214;27.936;2023-08-06T00:38:22;15.90;;;9.13;;
9763;SDS011;4921;43.214;27.936;2023-08-06T00:40:49;18.63;;;9.40;;
9763;SDS011;4921;43.214;27.936;2023-08-06T00:43:16;13.87;;;9.47;;
9763;SDS011;4921;43.214;27.936;2023-08-06T00:45:43;13.23;;;9.17;;
9763;SDS011;4921;43.214;27.936;2023-08-06T00:48:10;15.93;;;10.17;;
9763;SDS011;4921;43.214;27.936;2023-08-06T00:50:39;12.03;;;9.23;;
9763;SDS011;4921;43.214;27.936;2023-08-06T00:53:06;13.63;;;9.23;;
9763;SDS011;4921;43.214;27.936;2023-08-06T00:55:33;15.93;;;9.17;;
9763;SDS011;4921;43.214;27.936;2023-08-06T00:58:00;10.50;;;8.70;;
9763;SDS011;4921;43.214;27.936;2023-08-06T01:00:28;10.43;;;8.63;;
9763;SDS011;4921;43.214;27.936;2023-08-06T01:02:55;14.43;;;8.37;;
9763;SDS011;4921;43.214;27.936;2023-08-06T01:05:24;12.30;;;8.63;;
9763;SDS011;4921;43.214;27.936;2023-08-06T01:07:55;14.90;;;8.77;;
9763;SDS011;4921;43.214;27.936;2023-08-06T01:10:36;14.70;;;8.93;;
9763;SDS011;4921;43.214;27.936;2023-08-06T01:13:16;10.57;;;8.53;;
9763;SDS011;4921;43.214;27.936;2023-08-06T01:15:50;10.07;;;8.57;;
9763;SDS011;4921;43.214;27.936;2023-08-06T01:18:22;13.93;;;8.97;;
9763;SDS011;4921;43.214;27.936;2023-08-06T01:20:50;11.30;;;8.77;;
9763;SDS011;4921;43.214;27.936;2023-08-06T01:23:17;19.70;;;9.13;;
9763;SDS011;4921;43.214;27.936;2023-08-06T01:25:49;12.07;;;8.50;;
9763;SDS011;4921;43.214;27.936;2023-08-06T01:28:23;13.10;;;9.00;;
9763;SDS011;4921;43.214;27.936;2023-08-06T01:30:56;15.47;;;9.13;;
9763;SDS011;4921;43.214;27.936;2023-08-06T01:33:28;13.50;;;8.90;;
9763;SDS011;4921;43.214;27.936;2023-08-06T01:36:00;13.90;;;9.03;;
9763;SDS011;4921;43.214;27.936;2023-08-06T01:38:29;13.60;;;8.70;;
9763;SDS011;4921;43.214;27.936;2023-08-06T01:40:56;10.73;;;8.87;;
9763;SDS011;4921;43.214;27.936;2023-08-06T01:43:23;11.67;;;8.87;;
9763;SDS011;4921;43.214;27.936;2023-08-06T01:45:50;13.20;;;8.83;;
9763;SDS011;4921;43.214;27.936;2023-08-06T01:48:16;13.20;;;8.77;;
9763;SDS011;4921;43.214;27.936;2023-08-06T01:50:43;13.37;;;7.93;;
9763;SDS011;4921;43.214;27.936;2023-08-06T01:53:12;14.20;;;8.37;;
9763;SDS011;4921;43.214;27.936;2023-08-06T01:55:39;15.50;;;9.50;;
9763;SDS011;4921;43.214;27.936;2023-08-06T01:58:06;14.73;;;9.87;;
9763;SDS011;4921;43.214;27.936;2023-08-06T02:00:33;13.20;;;9.23;;
9763;SDS011;4921;43.214;27.936;2023-08-06T02:03:00;17.80;;;8.97;;
9763;SDS011;4921;43.214;27.936;2023-08-06T02:05:27;11.83;;;9.03;;
9763;SDS011;4921;43.214;27.936;2023-08-06T02:07:54;11.40;;;10.07;;
9763;SDS011;4921;43.214;27.936;2023-08-06T02:10:22;13.77;;;9.17;;
9763;SDS011;4921;43.214;27.936;2023-08-06T02:12:49;12.10;;;8.63;;
9763;SDS011;4921;43.214;27.936;2023-08-06T02:15:16;14.43;;;8.97;;
9763;SDS011;4921;43.214;27.936;2023-08-06T02:17:43;12.23;;;8.57;;
9763;SDS011;4921;43.214;27.936;2023-08-06T02:20:10;11.33;;;8.10;;
9763;SDS011;4921;43.214;27.936;2023-08-06T02:22:37;15.27;;;8.73;;
9763;SDS011;4921;43.214;27.936;2023-08-06T02:25:05;18.77;;;8.63;;
9763;SDS011;4921;43.214;27.936;2023-08-06T02:27:33;11.80;;;8.47;;
9763;SDS011;4921;43.214;27.936;2023-08-06T02:30:01;10.70;;;8.80;;
9763;SDS011;4921;43.214;27.936;2023-08-06T02:32:29;11.73;;;8.90;;
9763;SDS011;4921;43.214;27.936;2023-08-06T02:34:57;11.63;;;8.60;;
9763;SDS011;4921;43.214;27.936;2023-08-06T02:37:24;13.40;;;9.37;;
9763;SDS011;4921;43.214;27.936;2023-08-06T02:39:51;15.93;;;9.83;;
9763;SDS011;4921;43.214;27.936;2023-08-06T02:42:18;12.87;;;9.17;;
9763;SDS011;4921;43.214;27.936;2023-08-06T02:44:47;15.93;;;9.30;;
9763;SDS011;4921;43.214;27.936;2023-08-06T02:47:14;17.23;;;9.63;;
9763;SDS011;4921;43.214;27.936;2023-08-06T02:49:41;14.03;;;9.37;;
9763;SDS011;4921;43.214;27.936;2023-08-06T02:52:08;13.27;;;9.83;;
9763;SDS011;4921;43.214;27.936;2023-08-06T02:54:35;15.00;;;9.30;;
9763;SDS011;4921;43.214;27.936;2023-08-06T02:57:03;11.40;;;9.33;;
9763;SDS011;4921;43.214;27.936;2023-08-06T02:59:30;15.00;;;9.07;;
9763;SDS011;4921;43.214;27.936;2023-08-06T03:01:59;12.00;;;9.60;;
9763;SDS011;4921;43.214;27.936;2023-08-06T03:04:26;12.83;;;9.30;;
9763;SDS011;4921;43.214;27.936;2023-08-06T03:06:53;10.80;;;8.87;;
9763;SDS011;4921;43.214;27.936;2023-08-06T03:09:20;11.03;;;8.53;;
9763;SDS011;4921;43.214;27.936;2023-08-06T03:11:47;10.70;;;8.10;;
9763;SDS011;4921;43.214;27.936;2023-08-06T03:14:14;12.27;;;8.00;;
9763;SDS011;4921;43.214;27.936;2023-08-06T03:16:41;11.97;;;8.40;;
9763;SDS011;4921;43.214;27.936;2023-08-06T03:19:09;14.50;;;8.50;;
9763;SDS011;4921;43.214;27.936;2023-08-06T03:21:36;11.47;;;8.33;;
9763;SDS011;4921;43.214;27.936;2023-08-06T03:24:03;16.27;;;8.60;;
9763;SDS011;4921;43.214;27.936;2023-08-06T03:26:31;10.27;;;7.67;;
9763;SDS011;4921;43.214;27.936;2023-08-06T03:28:58;10.20;;;8.43;;
9763;SDS011;4921;43.214;27.936;2023-08-06T03:31:25;11.00;;;7.77;;
9763;SDS011;4921;43.214;27.936;2023-08-06T03:33:52;12.87;;;8.13;;
9763;SDS011;4921;43.214;27.936;2023-08-06T03:36:20;13.23;;;8.23;;
9763;SDS011;4921;43.214;27.936;2023-08-06T03:38:47;8.57;;;7.53;;
9763;SDS011;4921;43.214;27.936;2023-08-06T03:41:14;10.73;;;8.20;;
9763;SDS011;4921;43.214;27.936;2023-08-06T03:43:41;8.97;;;8.07;;
9763;SDS011;4921;43.214;27.936;2023-08-06T03:46:08;13.20;;;8.63;;
9763;SDS011;4921;43.214;27.936;2023-08-06T03:48:35;11.00;;;8.20;;
9763;SDS011;4921;43.214;27.936;2023-08-06T03:51:02;12.57;;;8.37;;
9763;SDS011;4921;43.214;27.936;2023-08-06T03:53:30;12.17;;;8.83;;
9763;SDS011;4921;43.214;27.936;2023-08-06T03:55:58;17.50;;;8.70;;
9763;SDS011;4921;43.214;27.936;2023-08-06T03:58:25;12.37;;;9.00;;
9763;SDS011;4921;43.214;27.936;2023-08-06T04:00:57;12.93;;;9.33;;
9763;SDS011;4921;43.214;27.936;2023-08-06T04:03:25;15.03;;;9.30;;
9763;SDS011;4921;43.214;27.936;2023-08-06T04:05:52;10.97;;;8.50;;
9763;SDS011;4921;43.214;27.936;2023-08-06T04:08:19;9.33;;;8.43;;
9763;SDS011;4921;43.214;27.936;2023-08-06T04:10:50;14.47;;;8.70;;
9763;SDS011;4921;43.214;27.936;2023-08-06T04:13:18;14.30;;;9.57;;
9763;SDS011;4921;43.214;27.936;2023-08-06T04:15:45;11.57;;;8.30;;
9763;SDS011;4921;43.214;27.936;2023-08-06T04:18:13;14.07;;;9.23;;
9763;SDS011;4921;43.214;27.936;2023-08-06T04:20:43;12.10;;;8.40;;
9763;SDS011;4921;43.214;27.936;2023-08-06T04:23:10;14.03;;;8.63;;
9763;SDS011;4921;43.214;27.936;2023-08-06T04:25:37;12.63;;;7.63;;
9763;SDS011;4921;43.214;27.936;2023-08-06T04:28:06;13.33;;;7.87;;
9763;SDS011;4921;43.214;27.936;2023-08-06T04:30:33;10.03;;;7.30;;
9763;SDS011;4921;43.214;27.936;2023-08-06T04:33:00;12.20;;;8.37;;
9763;SDS011;4921;43.214;27.936;2023-08-06T04:35:27;14.67;;;7.90;;
9763;SDS011;4921;43.214;27.936;2023-08-06T04:37:54;12.20;;;7.83;;
9763;SDS011;4921;43.214;27.936;2023-08-06T04:40:21;11.67;;;8.00;;
9763;SDS011;4921;43.214;27.936;2023-08-06T04:42:48;9.83;;;7.20;;
9763;SDS011;4921;43.214;27.936;2023-08-06T04:45:17;11.90;;;7.60;;
9763;SDS011;4921;43.214;27.936;2023-08-06T04:47:44;12.73;;;7.90;;
9763;SDS011;4921;43.214;27.936;2023-08-06T04:50:11;11.87;;;8.27;;
9763;SDS011;4921;43.214;27.936;2023-08-06T04:52:38;15.13;;;8.87;;
9763;SDS011;4921;43.214;27.936;2023-08-06T04:55:05;11.47;;;7.93;;
9763;SDS011;4921;43.214;27.936;2023-08-06T04:57:32;12.63;;;7.80;;
9763;SDS011;4921;43.214;27.936;2023-08-06T04:59:59;11.37;;;8.20;;
9763;SDS011;4921;43.214;27.936;2023-08-06T05:02:28;8.93;;;7.60;;
9763;SDS011;4921;43.214;27.936;2023-08-06T05:04:57;9.27;;;7.50;;
9763;SDS011;4921;43.214;27.936;2023-08-06T05:07:24;9.50;;;7.50;;
9763;SDS011;4921;43.214;27.936;2023-08-06T05:09:51;15.13;;;8.07;;
9763;SDS011;4921;43.214;27.936;2023-08-06T05:12:19;12.37;;;8.67;;
9763;SDS011;4921;43.214;27.936;2023-08-06T05:14:45;12.53;;;8.30;;
9763;SDS011;4921;43.214;27.936;2023-08-06T05:17:12;11.73;;;7.87;;
9763;SDS011;4921;43.214;27.936;2023-08-06T05:19:41;11.30;;;8.63;;
9763;SDS011;4921;43.214;27.936;2023-08-06T05:22:08;11.63;;;8.40;;
9763;SDS011;4921;43.214;27.936;2023-08-06T05:24:35;14.30;;;8.87;;
9763;SDS011;4921;43.214;27.936;2023-08-06T05:27:02;10.27;;;8.93;;
9763;SDS011;4921;43.214;27.936;2023-08-06T05:29:29;9.27;;;7.80;;
9763;SDS011;4921;43.214;27.936;2023-08-06T05:31:56;12.73;;;8.10;;
9763;SDS011;4921;43.214;27.936;2023-08-06T05:34:23;9.17;;;7.97;;
9763;SDS011;4921;43.214;27.936;2023-08-06T05:36:51;14.97;;;8.77;;
9763;SDS011;4921;43.214;27.936;2023-08-06T05:39:19;10.37;;;7.77;;
9763;SDS011;4921;43.214;27.936;2023-08-06T05:41:46;13.37;;;8.00;;
9763;SDS011;4921;43.214;27.936;2023-08-06T05:44:13;12.93;;;8.13;;
9763;SDS011;4921;43.214;27.936;2023-08-06T05:46:40;12.63;;;8.10;;
9763;SDS011;4921;43.214;27.936;2023-08-06T05:49:06;13.27;;;8.57;;
9763;SDS011;4921;43.214;27.936;2023-08-06T05:51:33;10.90;;;8.33;;
9763;SDS011;4921;43.214;27.936;2023-08-06T05:54:02;10.73;;;7.53;;
9763;SDS011;4921;43.214;27.936;2023-08-06T05:56:29;13.73;;;7.80;;
9763;SDS011;4921;43.214;27.936;2023-08-06T05:58:56;11.67;;;6.73;;
9763;SDS011;4921;43.214;27.936;2023-08-06T06:01:23;9.63;;;8.37;;
9763;SDS011;4921;43.214;27.936;2023-08-06T06:03:50;11.27;;;7.73;;
9763;SDS011;4921;43.214;27.936;2023-08-06T06:06:17;9.10;;;7.10;;
9763;SDS011;4921;43.214;27.936;2023-08-06T06:08:45;8.77;;;6.83;;
9763;SDS011;4921;43.214;27.936;2023-08-06T06:11:14;8.43;;;7.10;;
9763;SDS011;4921;43.214;27.936;2023-08-06T06:13:41;8.87;;;6.67;;
9763;SDS011;4921;43.214;27.936;2023-08-06T06:16:08;11.77;;;7.70;;
9763;SDS011;4921;43.214;27.936;2023-08-06T06:18:35;13.47;;;7.27;;
9763;SDS011;4921;43.214;27.936;2023-08-06T06:21:02;11.97;;;7.70;;
9763;SDS011;4921;43.214;27.936;2023-08-06T06:23:29;11.30;;;8.07;;
9763;SDS011;4921;43.214;27.936;2023-08-06T06:25:56;11.70;;;7.50;;
9763;SDS011;4921;43.214;27.936;2023-08-06T06:28:24;13.50;;;7.17;;
9763;SDS011;4921;43.214;27.936;2023-08-06T06:30:51;7.63;;;6.83;;
9763;SDS011;4921;43.214;27.936;2023-08-06T06:33:18;8.73;;;7.43;;
9763;SDS011;4921;43.214;27.936;2023-08-06T06:35:45;6.40;;;5.80;;
9763;SDS011;4921;43.214;27.936;2023-08-06T06:38:12;10.13;;;7.00;;
9763;SDS011;4921;43.214;27.936;2023-08-06T06:40:39;10.57;;;7.10;;
9763;SDS011;4921;43.214;27.936;2023-08-06T06:43:06;11.40;;;6.90;;
9763;SDS011;4921;43.214;27.936;2023-08-06T06:45:35;9.20;;;7.53;;
9763;SDS011;4921;43.214;27.936;2023-08-06T06:48:02;12.23;;;7.93;;
9763;SDS011;4921;43.214;27.936;2023-08-06T06:50:29;9.93;;;6.80;;
9763;SDS011;4921;43.214;27.936;2023-08-06T06:52:56;9.47;;;6.93;;
9763;SDS011;4921;43.214;27.936;2023-08-06T06:55:23;10.40;;;6.40;;
9763;SDS011;4921;43.214;27.936;2023-08-06T06:57:50;10.13;;;6.43;;
9763;SDS011;4921;43.214;27.936;2023-08-06T07:00:17;9.60;;;7.33;;
9763;SDS011;4921;43.214;27.936;2023-08-06T07:02:45;15.13;;;6.77;;
9763;SDS011;4921;43.214;27.936;2023-08-06T07:05:12;8.93;;;6.87;;
9763;SDS011;4921;43.214;27.936;2023-08-06T07:07:39;11.00;;;6.50;;
9763;SDS011;4921;43.214;27.936;2023-08-06T07:10:07;10.90;;;6.17;;
9763;SDS011;4921;43.214;27.936;2023-08-06T07:12:34;6.90;;;6.20;;
9763;SDS011;4921;43.214;27.936;2023-08-06T07:15:02;7.27;;;5.80;;
9763;SDS011;4921;43.214;27.936;2023-08-06T07:17:30;8.00;;;6.23;;
9763;SDS011;4921;43.214;27.936;2023-08-06T07:19:58;10.70;;;6.50;;
9763;SDS011;4921;43.214;27.936;2023-08-06T07:22:25;10.93;;;6.40;;
9763;SDS011;4921;43.214;27.936;2023-08-06T07:24:52;9.23;;;6.87;;
9763;SDS011;4921;43.214;27.936;2023-08-06T07:27:19;7.53;;;6.30;;
9763;SDS011;4921;43.214;27.936;2023-08-06T07:29:46;10.87;;;6.43;;
9763;SDS011;4921;43.214;27.936;2023-08-06T07:32:14;7.63;;;6.47;;
9763;SDS011;4921;43.214;27.936;2023-08-06T07:34:41;10.60;;;6.37;;
9763;SDS011;4921;43.214;27.936;2023-08-06T07:37:09;11.10;;;7.20;;
9763;SDS011;4921;43.214;27.936;2023-08-06T07:39:36;12.20;;;8.37;;
9763;SDS011;4921;43.214;27.936;2023-08-06T07:42:04;9.50;;;6.80;;
9763;SDS011;4921;43.214;27.936;2023-08-06T07:44:32;11.83;;;6.97;;
9763;SDS011;4921;43.214;27.936;2023-08-06T07:46:59;9.47;;;6.90;;
9763;SDS011;4921;43.214;27.936;2023-08-06T07:49:26;8.50;;;6.70;;
9763;SDS011;4921;43.214;27.936;2023-08-06T07:51:53;10.73;;;6.83;;
9763;SDS011;4921;43.214;27.936;2023-08-06T07:54:22;10.63;;;6.53;;
9763;SDS011;4921;43.214;27.936;2023-08-06T07:56:49;11.50;;;6.90;;
9763;SDS011;4921;43.214;27.936;2023-08-06T07:59:16;9.60;;;6.97;;
9763;SDS011;4921;43.214;27.936;2023-08-06T08:01:43;9.30;;;6.60;;
9763;SDS011;4921;43.214;27.936;2023-08-06T08:04:10;10.77;;;6.57;;
9763;SDS011;4921;43.214;27.936;2023-08-06T08:06:37;11.50;;;6.63;;
9763;SDS011;4921;43.214;27.936;2023-08-06T08:09:04;9.43;;;6.60;;
9763;SDS011;4921;43.214;27.936;2023-08-06T08:11:33;7.37;;;6.10;;
9763;SDS011;4921;43.214;27.936;2023-08-06T08:13:59;8.33;;;6.23;;
9763;SDS011;4921;43.214;27.936;2023-08-06T08:16:28;8.33;;;5.63;;
9763;SDS011;4921;43.214;27.936;2023-08-06T08:18:55;8.30;;;6.27;;
9763;SDS011;4921;43.214;27.936;2023-08-06T08:21:22;7.20;;;6.03;;
9763;SDS011;4921;43.214;27.936;2023-08-06T08:23:49;13.37;;;6.57;;
9763;SDS011;4921;43.214;27.936;2023-08-06T08:26:16;7.07;;;6.00;;
9763;SDS011;4921;43.214;27.936;2023-08-06T08:28:44;7.20;;;6.60;;
9763;SDS011;4921;43.214;27.936;2023-08-06T08:31:12;8.00;;;6.93;;
9763;SDS011;4921;43.214;27.936;2023-08-06T08:33:39;9.50;;;6.50;;
9763;SDS011;4921;43.214;27.936;2023-08-06T08:36:06;8.67;;;6.50;;
9763;SDS011;4921;43.214;27.936;2023-08-06T08:38:35;6.03;;;5.33;;
9763;SDS011;4921;43.214;27.936;2023-08-06T08:41:02;8.57;;;5.80;;
9763;SDS011;4921;43.214;27.936;2023-08-06T08:43:29;9.03;;;6.03;;
9763;SDS011;4921;43.214;27.936;2023-08-06T08:45:58;6.97;;;5.30;;
9763;SDS011;4921;43.214;27.936;2023-08-06T08:48:28;9.40;;;5.70;;
9763;SDS011;4921;43.214;27.936;2023-08-06T08:50:55;7.13;;;6.43;;
9763;SDS011;4921;43.214;27.936;2023-08-06T08:53:23;6.73;;;6.00;;
9763;SDS011;4921;43.214;27.936;2023-08-06T08:55:51;10.57;;;6.77;;
9763;SDS011;4921;43.214;27.936;2023-08-06T08:58:19;8.67;;;6.20;;
9763;SDS011;4921;43.214;27.936;2023-08-06T09:00:46;9.50;;;6.17;;
9763;SDS011;4921;43.214;27.936;2023-08-06T09:03:15;11.33;;;6.07;;
9763;SDS011;4921;43.214;27.936;2023-08-06T09:05:44;9.73;;;6.10;;
9763;SDS011;4921;43.214;27.936;2023-08-06T09:08:12;11.27;;;6.63;;
9763;SDS011;4921;43.214;27.936;2023-08-06T09:10:44;7.93;;;5.83;;
9763;SDS011;4921;43.214;27.936;2023-08-06T09:13:14;11.23;;;8.03;;
9763;SDS011;4921;43.214;27.936;2023-08-06T09:15:42;6.27;;;5.70;;
9763;SDS011;4921;43.214;27.936;2023-08-06T09:18:09;9.80;;;6.43;;
9763;SDS011;4921;43.214;27.936;2023-08-06T09:20:38;6.53;;;5.60;;
9763;SDS011;4921;43.214;27.936;2023-08-06T09:23:09;8.47;;;5.23;;
9763;SDS011;4921;43.214;27.936;2023-08-06T09:25:37;7.10;;;5.50;;
9763;SDS011;4921;43.214;27.936;2023-08-06T09:28:06;7.90;;;5.50;;
9763;SDS011;4921;43.214;27.936;2023-08-06T09:30:33;8.13;;;5.60;;
9763;SDS011;4921;43.214;27.936;2023-08-06T09:33:02;8.97;;;5.87;;
9763;SDS011;4921;43.214;27.936;2023-08-06T09:35:35;10.47;;;6.37;;
9763;SDS011;4921;43.214;27.936;2023-08-06T09:38:07;12.10;;;5.93;;
9763;SDS011;4921;43.214;27.936;2023-08-06T09:40:35;9.53;;;5.80;;
9763;SDS011;4921;43.214;27.936;2023-08-06T09:43:03;9.80;;;5.20;;
9763;SDS011;4921;43.214;27.936;2023-08-06T09:45:31;9.43;;;5.60;;
9763;SDS011;4921;43.214;27.936;2023-08-06T09:47:59;6.37;;;5.00;;
9763;SDS011;4921;43.214;27.936;2023-08-06T09:50:29;12.23;;;5.70;;
9763;SDS011;4921;43.214;27.936;2023-08-06T09:52:57;7.53;;;5.20;;
9763;SDS011;4921;43.214;27.936;2023-08-06T09:55:26;8.03;;;5.50;;
9763;SDS011;4921;43.214;27.936;2023-08-06T09:57:54;8.90;;;5.87;;
9763;SDS011;4921;43.214;27.936;2023-08-06T10:00:21;8.67;;;5.07;;
9763;SDS011;4921;43.214;27.936;2023-08-06T10:02:49;6.97;;;5.40;;
9763;SDS011;4921;43.214;27.936;2023-08-06T10:05:20;7.53;;;5.30;;
9763;SDS011;4921;43.214;27.936;2023-08-06T10:07:47;7.47;;;5.50;;
9763;SDS011;4921;43.214;27.936;2023-08-06T10:10:16;8.60;;;5.00;;
9763;SDS011;4921;43.214;27.936;2023-08-06T10:12:47;5.90;;;5.40;;
9763;SDS011;4921;43.214;27.936;2023-08-06T10:15:17;9.70;;;5.13;;
9763;SDS011;4921;43.214;27.936;2023-08-06T10:17:47;8.73;;;4.33;;
9763;SDS011;4921;43.214;27.936;2023-08-06T10:20:18;9.73;;;5.77;;
9763;SDS011;4921;43.214;27.936;2023-08-06T10:22:46;9.97;;;5.63;;
9763;SDS011;4921;43.214;27.936;2023-08-06T10:25:28;7.77;;;5.53;;
9763;SDS011;4921;43.214;27.936;2023-08-06T10:27:58;8.35;;;5.45;;
9763;SDS011;4921;43.214;27.936;2023-08-06T10:30:26;8.38;;;5.15;;
9763;SDS011;4921;43.214;27.936;2023-08-06T10:32:55;8.63;;;5.50;;
9763;SDS011;4921;43.214;27.936;2023-08-06T10:35:33;8.43;;;4.97;;
9763;SDS011;4921;43.214;27.936;2023-08-06T10:38:07;7.73;;;5.17;;
9763;SDS011;4921;43.214;27.936;2023-08-06T10:40:35;7.87;;;4.70;;
9763;SDS011;4921;43.214;27.936;2023-08-06T10:43:04;5.13;;;4.63;;
9763;SDS011;4921;43.214;27.936;2023-08-06T10:45:34;7.00;;;4.83;;
9763;SDS011;4921;43.214;27.936;2023-08-06T10:48:02;6.57;;;5.00;;
9763;SDS011;4921;43.214;27.936;2023-08-06T10:50:29;6.15;;;4.75;;
9763;SDS011;4921;43.214;27.936;2023-08-06T10:52:57;5.43;;;4.60;;
9763;SDS011;4921;43.214;27.936;2023-08-06T10:55:30;6.50;;;4.68;;
9763;SDS011;4921;43.214;27.936;2023-08-06T10:57:57;6.80;;;4.80;;
9763;SDS011;4921;43.214;27.936;2023-08-06T11:00:26;7.37;;;4.80;;
9763;SDS011;4921;43.214;27.936;2023-08-06T11:02:53;5.03;;;4.63;;
9763;SDS011;4921;43.214;27.936;2023-08-06T11:05:20;8.77;;;5.93;;
9763;SDS011;4921;43.214;27.936;2023-08-06T11:07:47;10.07;;;5.10;;
9763;SDS011;4921;43.214;27.936;2023-08-06T11:10:16;5.40;;;4.87;;
9763;SDS011;4921;43.214;27.936;2023-08-06T11:12:43;8.43;;;5.23;;
9763;SDS011;4921;43.214;27.936;2023-08-06T11:15:10;14.45;;;6.03;;
9763;SDS011;4921;43.214;27.936;2023-08-06T11:17:39;11.13;;;5.97;;
9763;SDS011;4921;43.214;27.936;2023-08-06T11:20:08;12.40;;;5.97;;
9763;SDS011;4921;43.214;27.936;2023-08-06T11:22:36;7.40;;;5.23;;
9763;SDS011;4921;43.214;27.936;2023-08-06T11:25:05;10.30;;;5.70;;
9763;SDS011;4921;43.214;27.936;2023-08-06T11:27:33;6.47;;;5.23;;
9763;SDS011;4921;43.214;27.936;2023-08-06T11:30:00;11.97;;;5.97;;
9763;SDS011;4921;43.214;27.936;2023-08-06T11:32:27;6.23;;;5.30;;
9763;SDS011;4921;43.214;27.936;2023-08-06T11:34:55;7.83;;;5.80;;
9763;SDS011;4921;43.214;27.936;2023-08-06T11:37:23;5.73;;;5.17;;
9763;SDS011;4921;43.214;27.936;2023-08-06T11:39:51;10.23;;;5.80;;
9763;SDS011;4921;43.214;27.936;2023-08-06T11:42:18;11.83;;;5.63;;
9763;SDS011;4921;43.214;27.936;2023-08-06T11:44:45;7.83;;;5.60;;
9763;SDS011;4921;43.214;27.936;2023-08-06T11:47:13;5.83;;;5.03;;
9763;SDS011;4921;43.214;27.936;2023-08-06T11:49:42;10.73;;;5.33;;
9763;SDS011;4921;43.214;27.936;2023-08-06T11:52:14;7.93;;;5.37;;
9763;SDS011;4921;43.214;27.936;2023-08-06T11:54:46;8.00;;;5.90;;
9763;SDS011;4921;43.214;27.936;2023-08-06T11:57:14;7.00;;;5.60;;
9763;SDS011;4921;43.214;27.936;2023-08-06T11:59:42;10.60;;;5.67;;
9763;SDS011;4921;43.214;27.936;2023-08-06T12:02:09;10.93;;;6.20;;
9763;SDS011;4921;43.214;27.936;2023-08-06T12:07:31;9.00;;;6.40;;
9763;SDS011;4921;43.214;27.936;2023-08-06T12:09:59;12.33;;;5.80;;
9763;SDS011;4921;43.214;27.936;2023-08-06T12:12:26;8.70;;;5.67;;
9763;SDS011;4921;43.214;27.936;2023-08-06T12:14:54;8.27;;;4.90;;
9763;SDS011;4921;43.214;27.936;2023-08-06T12:17:22;6.60;;;3.63;;
9763;SDS011;4921;43.214;27.936;2023-08-06T12:19:49;4.17;;;2.47;;
9763;SDS011;4921;43.214;27.936;2023-08-06T12:22:16;8.63;;;2.87;;
9763;SDS011;4921;43.214;27.936;2023-08-06T12:24:45;5.97;;;3.27;;
9763;SDS011;4921;43.214;27.936;2023-08-06T12:27:13;7.40;;;3.10;;
9763;SDS011;4921;43.214;27.936;2023-08-06T12:29:43;5.67;;;2.87;;
9763;SDS011;4921;43.214;27.936;2023-08-06T12:32:13;4.70;;;3.07;;
9763;SDS011;4921;43.214;27.936;2023-08-06T12:37:58;6.97;;;3.20;;
9763;SDS011;4921;43.214;27.936;2023-08-06T12:40:26;8.17;;;3.37;;
9763;SDS011;4921;43.214;27.936;2023-08-06T12:42:53;7.00;;;3.60;;
9763;SDS011;4921;43.214;27.936;2023-08-06T12:45:20;5.17;;;3.90;;
9763;SDS011;4921;43.214;27.936;2023-08-06T12:47:47;4.13;;;3.37;;
9763;SDS011;4921;43.214;27.936;2023-08-06T12:50:15;5.27;;;3.87;;
9763;SDS011;4921;43.214;27.936;2023-08-06T12:52:42;8.77;;;3.67;;
9763;SDS011;4921;43.214;27.936;2023-08-06T12:55:09;6.07;;;3.90;;
9763;SDS011;4921;43.214;27.936;2023-08-06T12:57:40;4.50;;;4.10;;
9763;SDS011;4921;43.214;27.936;2023-08-06T13:00:08;5.20;;;3.63;;
9763;SDS011;4921;43.214;27.936;2023-08-06T13:02:35;4.63;;;3.70;;
9763;SDS011;4921;43.214;27.936;2023-08-06T13:05:02;4.37;;;3.70;;
9763;SDS011;4921;43.214;27.936;2023-08-06T13:07:31;4.97;;;4.00;;
9763;SDS011;4921;43.214;27.936;2023-08-06T13:09:58;4.53;;;3.50;;
9763;SDS011;4921;43.214;27.936;2023-08-06T13:12:25;4.80;;;3.57;;
9763;SDS011;4921;43.214;27.936;2023-08-06T13:14:53;4.83;;;3.57;;
9763;SDS011;4921;43.214;27.936;2023-08-06T13:17:23;3.50;;;3.20;;
9763;SDS011;4921;43.214;27.936;2023-08-06T13:19:51;5.13;;;4.00;;
9763;SDS011;4921;43.214;27.936;2023-08-06T13:22:18;7.53;;;3.83;;
9763;SDS011;4921;43.214;27.936;2023-08-06T13:24:45;5.93;;;3.63;;
9763;SDS011;4921;43.214;27.936;2023-08-06T13:27:12;5.10;;;3.70;;
9763;SDS011;4921;43.214;27.936;2023-08-06T13:29:39;3.33;;;3.03;;
9763;SDS011;4921;43.214;27.936;2023-08-06T13:32:07;5.27;;;3.30;;
9763;SDS011;4921;43.214;27.936;2023-08-06T13:34:34;3.90;;;2.63;;
9763;SDS011;4921;43.214;27.936;2023-08-06T13:37:01;3.80;;;3.13;;
9763;SDS011;4921;43.214;27.936;2023-08-06T13:39:29;3.97;;;3.23;;
9763;SDS011;4921;43.214;27.936;2023-08-06T13:41:56;3.53;;;3.08;;
9763;SDS011;4921;43.214;27.936;2023-08-06T13:44:23;4.97;;;3.30;;
9763;SDS011;4921;43.214;27.936;2023-08-06T13:46:50;4.03;;;2.87;;
9763;SDS011;4921;43.214;27.936;2023-08-06T13:49:18;2.87;;;2.67;;
9763;SDS011;4921;43.214;27.936;2023-08-06T13:51:45;3.10;;;2.90;;
9763;SDS011;4921;43.214;27.936;2023-08-06T13:54:12;4.05;;;2.80;;
9763;SDS011;4921;43.214;27.936;2023-08-06T13:56:39;4.63;;;2.50;;
9763;SDS011;4921;43.214;27.936;2023-08-06T13:59:06;4.43;;;2.87;;
9763;SDS011;4921;43.214;27.936;2023-08-06T14:01:33;6.30;;;3.67;;
9763;SDS011;4921;43.214;27.936;2023-08-06T14:04:00;3.90;;;2.77;;
9763;SDS011;4921;43.214;27.936;2023-08-06T14:06:29;3.17;;;2.80;;
9763;SDS011;4921;43.214;27.936;2023-08-06T14:08:56;4.97;;;3.17;;
9763;SDS011;4921;43.214;27.936;2023-08-06T14:11:23;6.57;;;2.83;;
9763;SDS011;4921;43.214;27.936;2023-08-06T14:13:50;3.22;;;2.92;;
9763;SDS011;4921;43.214;27.936;2023-08-06T14:16:17;3.00;;;2.80;;
9763;SDS011;4921;43.214;27.936;2023-08-06T14:18:44;6.43;;;3.50;;
9763;SDS011;4921;43.214;27.936;2023-08-06T14:21:11;3.57;;;3.30;;
9763;SDS011;4921;43.214;27.936;2023-08-06T14:23:41;3.60;;;3.30;;
9763;SDS011;4921;43.214;27.936;2023-08-06T14:26:08;4.17;;;3.70;;
9763;SDS011;4921;43.214;27.936;2023-08-06T14:28:36;4.00;;;3.33;;
9763;SDS011;4921;43.214;27.936;2023-08-06T14:31:03;5.25;;;3.40;;
9763;SDS011;4921;43.214;27.936;2023-08-06T14:33:30;3.65;;;3.35;;
9763;SDS011;4921;43.214;27.936;2023-08-06T14:35:57;6.22;;;3.72;;
9763;SDS011;4921;43.214;27.936;2023-08-06T14:38:24;3.40;;;3.10;;
9763;SDS011;4921;43.214;27.936;2023-08-06T14:40:52;4.07;;;3.63;;
9763;SDS011;4921;43.214;27.936;2023-08-06T14:43:19;3.40;;;2.97;;
9763;SDS011;4921;43.214;27.936;2023-08-06T14:45:46;3.80;;;3.50;;
9763;SDS011;4921;43.214;27.936;2023-08-06T14:48:13;4.10;;;3.72;;
9763;SDS011;4921;43.214;27.936;2023-08-06T14:50:40;3.73;;;3.43;;
9763;SDS011;4921;43.214;27.936;2023-08-06T14:53:07;3.75;;;3.17;;
9763;SDS011;4921;43.214;27.936;2023-08-06T14:55:36;6.90;;;3.63;;
9763;SDS011;4921;43.214;27.936;2023-08-06T14:58:05;5.97;;;3.77;;
9763;SDS011;4921;43.214;27.936;2023-08-06T15:00:32;3.83;;;3.50;;
9763;SDS011;4921;43.214;27.936;2023-08-06T15:02:59;5.35;;;3.55;;
9763;SDS011;4921;43.214;27.936;2023-08-06T15:05:26;10.20;;;3.63;;